createdAt,value
2023-05-07T00:00:37.715Z,66.76
2023-05-07T00:03:05.528Z,66.62
2023-05-07T00:05:33.100Z,67.61
2023-05-07T00:08:00.480Z,65.93
2023-05-07T00:10:28.324Z,65.53
2023-05-07T00:12:55.724Z,64.87
2023-05-07T00:15:23.083Z,66.02
2023-05-07T00:17:51.071Z,66.09
2023-05-07T00:20:18.493Z,66.65
2023-05-07T00:22:46.152Z,67.21
2023-05-07T00:25:13.769Z,65.57
2023-05-07T00:27:41.181Z,65.04
2023-05-07T00:30:09.431Z,63.22
2023-05-07T00:32:37.831Z,63.96
2023-05-07T00:35:06.078Z,65.69
2023-05-07T00:37:33.435Z,65.13
2023-05-07T00:40:01.038Z,65.38
2023-05-07T00:42:28.847Z,66.23
2023-05-07T00:44:56.218Z,64.63
2023-05-07T00:47:23.956Z,64.00
2023-05-07T00:49:51.391Z,65.97
2023-05-07T00:52:18.948Z,65.84
2023-05-07T00:54:46.689Z,66.22
2023-05-07T00:57:14.059Z,65.34
2023-05-07T00:59:41.829Z,64.88
2023-05-07T01:02:09.502Z,65.77
2023-05-07T01:04:37.678Z,66.37
2023-05-07T01:07:06.164Z,67.11
2023-05-07T01:09:36.204Z,67.27
2023-05-07T01:12:03.956Z,66.57
2023-05-07T01:14:32.029Z,66.83
2023-05-07T01:16:59.798Z,66.44
2023-05-07T01:19:28.155Z,65.76
2023-05-07T01:21:55.534Z,65.50
2023-05-07T01:24:24.542Z,65.28
2023-05-07T01:26:51.939Z,64.74
2023-05-07T01:29:19.603Z,64.83
2023-05-07T01:31:47.816Z,65.19
2023-05-07T01:34:15.307Z,63.91
2023-05-07T01:36:42.681Z,65.46
2023-05-07T01:39:10.391Z,65.44
2023-05-07T01:41:37.744Z,65.60
2023-05-07T01:44:05.783Z,65.30
2023-05-07T01:46:33.688Z,66.41
2023-05-07T01:49:01.089Z,64.97
2023-05-07T01:51:28.603Z,65.42
2023-05-07T01:53:56.641Z,66.17
2023-05-07T01:56:24.815Z,65.92
2023-05-07T01:58:52.766Z,66.45
2023-05-07T02:01:20.710Z,66.92
2023-05-07T02:03:49.034Z,67.68
2023-05-07T02:06:17.381Z,67.54
2023-05-07T02:08:44.752Z,66.65
2023-05-07T02:11:12.615Z,67.42
2023-05-07T02:13:40.017Z,67.19
2023-05-07T02:16:07.710Z,66.86
2023-05-07T02:18:36.744Z,66.93
2023-05-07T02:21:04.347Z,65.56
2023-05-07T02:23:31.796Z,66.78
2023-05-07T02:25:59.705Z,66.89
2023-05-07T02:28:27.071Z,66.51
2023-05-07T02:30:54.759Z,67.08
2023-05-07T02:33:22.564Z,68.84
2023-05-07T02:35:49.940Z,68.16
2023-05-07T02:38:17.306Z,66.84
2023-05-07T02:40:45.058Z,68.11
2023-05-07T02:43:12.448Z,66.67
2023-05-07T02:45:41.006Z,66.81
2023-05-07T02:48:09.010Z,67.37
2023-05-07T02:50:36.422Z,68.33
2023-05-07T02:53:04.580Z,67.57
2023-05-07T02:55:32.388Z,66.84
2023-05-07T02:58:00.083Z,65.41
2023-05-07T03:00:27.752Z,65.92
2023-05-07T03:02:57.045Z,67.01
2023-05-07T03:05:24.569Z,67.96
2023-05-07T03:07:51.928Z,67.39
2023-05-07T03:10:19.730Z,67.04
2023-05-07T03:12:47.189Z,67.12
2023-05-07T03:15:15.529Z,66.22
2023-05-07T03:17:43.200Z,67.14
2023-05-07T03:20:12.061Z,65.00
2023-05-07T03:22:40.510Z,67.11
2023-05-07T03:25:08.660Z,67.15
2023-05-07T03:27:36.045Z,66.40
2023-05-07T03:30:05.078Z,66.32
2023-05-07T03:32:32.766Z,66.01
2023-05-07T03:35:00.262Z,66.76
2023-05-07T03:37:27.861Z,67.79
2023-05-07T03:39:55.487Z,67.16
2023-05-07T03:42:22.950Z,66.50
2023-05-07T03:44:50.870Z,65.83
2023-05-07T03:47:18.878Z,66.80
2023-05-07T03:49:46.415Z,67.12
2023-05-07T03:52:14.061Z,66.36
2023-05-07T03:54:41.750Z,65.82
2023-05-07T03:57:09.373Z,66.48
2023-05-07T03:59:37.613Z,65.85
2023-05-07T04:02:05.804Z,66.49
2023-05-07T04:04:34.309Z,65.30
2023-05-07T04:07:01.906Z,65.28
2023-05-07T04:09:29.838Z,65.06
2023-05-07T04:11:58.004Z,64.64
2023-05-07T04:14:25.415Z,65.91
2023-05-07T04:16:53.325Z,66.03
2023-05-07T04:19:21.050Z,65.39
2023-05-07T04:21:50.250Z,65.53
2023-05-07T04:24:17.791Z,65.24
2023-05-07T04:26:46.495Z,63.82
2023-05-07T04:29:14.072Z,63.53
2023-05-07T04:31:45.167Z,64.01
2023-05-07T04:34:13.245Z,64.22
2023-05-07T04:36:41.456Z,63.42
2023-05-07T04:39:11.565Z,63.81
2023-05-07T04:41:39.927Z,62.77
2023-05-07T04:44:07.558Z,60.87
2023-05-07T04:46:35.884Z,59.67
2023-05-07T04:49:04.305Z,59.34
2023-05-07T04:51:33.713Z,58.27
2023-05-07T04:54:01.177Z,58.10
2023-05-07T04:56:30.890Z,57.08
2023-05-07T04:58:58.580Z,56.35
2023-05-07T05:01:26.259Z,56.12
2023-05-07T05:03:54.070Z,55.29
2023-05-07T05:06:21.567Z,56.72
2023-05-07T05:08:49.070Z,56.63
2023-05-07T05:11:16.840Z,56.04
2023-05-07T05:13:44.215Z,55.43
2023-05-07T05:16:11.871Z,54.41
2023-05-07T05:18:39.890Z,53.81
2023-05-07T05:21:09.102Z,52.95
2023-05-07T05:23:36.599Z,52.26
2023-05-07T05:26:04.692Z,50.71
2023-05-07T05:28:32.479Z,49.50
2023-05-07T05:30:59.888Z,48.56
2023-05-07T05:33:28.169Z,47.28
2023-05-07T05:35:58.957Z,44.94
2023-05-07T05:38:26.860Z,44.62
2023-05-07T05:40:56.676Z,43.25
2023-05-07T05:43:24.546Z,40.71
2023-05-07T05:45:52.051Z,38.11
2023-05-07T05:48:19.938Z,34.63
2023-05-07T05:50:47.899Z,33.04
2023-05-07T05:53:15.467Z,32.77
2023-05-07T05:55:43.452Z,32.97
2023-05-07T05:58:11.232Z,32.24
2023-05-07T06:00:39.113Z,32.06
2023-05-07T06:03:07.009Z,31.84
2023-05-07T06:05:35.231Z,33.47
2023-05-07T06:08:02.785Z,33.37
2023-05-07T06:10:31.610Z,31.58
2023-05-07T06:12:59.138Z,31.34
2023-05-07T06:15:26.911Z,29.76
2023-05-07T06:17:57.038Z,29.43
2023-05-07T06:20:24.733Z,29.86
2023-05-07T06:22:52.105Z,27.45
2023-05-07T06:25:19.957Z,27.52
2023-05-07T06:27:47.318Z,26.33
2023-05-07T06:30:14.826Z,26.20
2023-05-07T06:32:42.546Z,27.54
2023-05-07T06:35:10.217Z,29.40
2023-05-07T06:37:39.408Z,29.49
2023-05-07T06:40:08.437Z,31.55
2023-05-07T06:42:38.958Z,32.82
2023-05-07T06:45:15.614Z,33.41
2023-05-07T06:47:43.009Z,35.02
2023-05-07T06:50:11.165Z,36.34
2023-05-07T06:52:39.046Z,35.81
2023-05-07T06:55:07.300Z,37.55
2023-05-07T06:57:34.898Z,35.74
2023-05-07T07:00:02.282Z,36.54
2023-05-07T07:02:30.476Z,36.37
2023-05-07T07:04:58.219Z,37.59
2023-05-07T07:07:25.686Z,38.00
2023-05-07T07:09:53.099Z,39.05
2023-05-07T07:12:20.774Z,38.78
2023-05-07T07:14:48.456Z,40.58
2023-05-07T07:17:16.219Z,39.64
2023-05-07T07:19:43.898Z,39.30
2023-05-07T07:22:12.186Z,40.94
2023-05-07T07:24:39.678Z,41.04
2023-05-07T07:27:07.866Z,42.63
2023-05-07T07:29:35.422Z,43.76
2023-05-07T07:32:03.148Z,43.91
2023-05-07T07:34:31.204Z,43.45
2023-05-07T07:36:58.792Z,43.62
2023-05-07T07:39:26.285Z,44.79
2023-05-07T07:41:54.866Z,44.81
2023-05-07T07:44:22.288Z,51.64
2023-05-07T07:46:50.710Z,50.23
2023-05-07T07:49:18.426Z,48.59
2023-05-07T07:51:45.894Z,50.23
2023-05-07T07:54:13.478Z,49.06
2023-05-07T07:56:41.571Z,49.43
2023-05-07T07:59:09.662Z,50.36
2023-05-07T08:01:38.983Z,51.51
2023-05-07T08:04:07.476Z,51.73
2023-05-07T08:06:35.629Z,53.12
2023-05-07T08:09:03.567Z,55.99
2023-05-07T08:11:31.555Z,54.11
2023-05-07T08:13:59.286Z,54.27
2023-05-07T08:16:26.689Z,54.78
2023-05-07T08:18:54.458Z,53.75
2023-05-07T08:21:21.795Z,53.55
2023-05-07T08:23:49.191Z,52.24
2023-05-07T08:26:16.796Z,53.56
2023-05-07T08:28:44.510Z,52.26
2023-05-07T08:31:11.942Z,52.81
2023-05-07T08:33:39.880Z,52.92
2023-05-07T08:36:07.322Z,53.27
2023-05-07T08:38:35.187Z,53.78
2023-05-07T08:41:02.829Z,55.29
2023-05-07T08:43:30.411Z,55.25
2023-05-07T08:45:57.900Z,53.81
2023-05-07T08:48:26.614Z,53.38
2023-05-07T08:50:54.708Z,54.43
2023-05-07T08:53:22.707Z,53.26
2023-05-07T08:55:50.733Z,54.68
2023-05-07T08:58:18.187Z,51.19
2023-05-07T09:00:45.717Z,49.59
2023-05-07T09:03:13.754Z,50.09
2023-05-07T09:05:41.957Z,47.45
2023-05-07T09:08:09.497Z,42.66
2023-05-07T09:10:37.507Z,44.13
2023-05-07T09:13:05.278Z,40.78
2023-05-07T09:15:33.208Z,40.17
2023-05-07T09:18:02.456Z,39.88
2023-05-07T09:20:33.294Z,40.66
2023-05-07T09:23:01.168Z,40.83
2023-05-07T09:25:30.273Z,40.22
2023-05-07T09:27:58.423Z,35.03
2023-05-07T09:30:30.739Z,34.01
2023-05-07T09:33:00.216Z,33.86
2023-05-07T09:35:28.352Z,34.42
2023-05-07T09:37:56.694Z,35.25
2023-05-07T09:40:25.377Z,34.61
2023-05-07T09:42:53.728Z,36.57
2023-05-07T09:45:30.484Z,35.66
2023-05-07T09:47:59.302Z,37.17
2023-05-07T09:50:33.689Z,39.71
2023-05-07T09:53:01.695Z,40.29
2023-05-07T09:55:29.179Z,41.65
2023-05-07T09:57:56.820Z,42.24
2023-05-07T10:00:25.364Z,41.21
2023-05-07T10:02:58.367Z,43.36
2023-05-07T10:05:26.715Z,44.69
2023-05-07T10:07:54.656Z,45.59
2023-05-07T10:10:22.506Z,48.29
2023-05-07T10:12:50.831Z,48.23
2023-05-07T10:15:18.598Z,50.55
2023-05-07T10:17:47.011Z,49.99
2023-05-07T10:20:14.798Z,49.13
2023-05-07T10:22:44.238Z,48.62
2023-05-07T10:25:31.397Z,49.06
2023-05-07T10:28:02.267Z,50.21
2023-05-07T10:30:58.035Z,49.57
2023-05-07T10:33:28.087Z,49.58
2023-05-07T10:36:00.415Z,48.61
2023-05-07T10:38:28.381Z,48.08
2023-05-07T10:40:56.037Z,49.12
2023-05-07T10:43:23.555Z,45.50
2023-05-07T10:46:10.819Z,47.22
2023-05-07T10:49:12.816Z,45.77
2023-05-07T10:51:41.264Z,44.52
2023-05-07T10:54:12.258Z,42.71
2023-05-07T10:56:46.919Z,42.34
2023-05-07T10:59:31.740Z,43.10
2023-05-07T11:02:05.008Z,44.22
2023-05-07T11:04:35.998Z,43.56
2023-05-07T11:07:09.777Z,43.43
2023-05-07T11:09:53.264Z,43.01
2023-05-07T11:12:36.717Z,40.35
2023-05-07T11:15:08.605Z,38.95
2023-05-07T11:17:52.849Z,39.21
2023-05-07T11:20:21.317Z,41.76
2023-05-07T11:22:49.116Z,39.61
2023-05-07T11:25:22.542Z,37.64
2023-05-07T11:27:50.853Z,37.73
2023-05-07T11:30:19.581Z,37.97
2023-05-07T11:32:48.700Z,35.44
2023-05-07T11:35:17.119Z,35.08
2023-05-07T11:37:44.717Z,34.85
2023-05-07T11:40:14.837Z,37.60
2023-05-07T11:42:45.759Z,36.69
2023-05-07T11:45:13.451Z,37.27
2023-05-07T11:47:42.517Z,37.17
2023-05-07T11:50:12.040Z,38.80
2023-05-07T11:52:40.308Z,38.49
2023-05-07T11:55:08.059Z,36.88
2023-05-07T11:57:36.267Z,38.76
2023-05-07T12:00:05.633Z,38.37
2023-05-07T12:02:40.116Z,40.77
2023-05-07T12:05:08.055Z,38.41
2023-05-07T12:07:35.578Z,38.50
2023-05-07T12:10:07.368Z,38.16
2023-05-07T12:12:43.140Z,38.71
2023-05-07T12:15:11.331Z,37.45
2023-05-07T12:17:39.384Z,38.50
2023-05-07T12:20:08.207Z,39.00
2023-05-07T12:22:35.736Z,39.43
2023-05-07T12:25:03.958Z,37.84
2023-05-07T12:27:32.092Z,38.99
2023-05-07T12:30:00.348Z,39.33
2023-05-07T12:32:28.199Z,37.61
2023-05-07T12:34:55.593Z,39.79
2023-05-07T12:37:27.560Z,39.44
2023-05-07T12:40:07.465Z,39.99
2023-05-07T12:42:36.844Z,41.54
2023-05-07T12:45:12.096Z,41.37
2023-05-07T12:47:39.946Z,41.58
2023-05-07T12:50:08.017Z,40.24
2023-05-07T12:52:35.601Z,40.82
2023-05-07T12:55:07.688Z,40.13
2023-05-07T12:57:42.838Z,40.00
2023-05-07T13:00:10.810Z,38.45
2023-05-07T13:02:39.465Z,37.48
2023-05-07T13:05:07.146Z,38.58
2023-05-07T13:07:34.504Z,39.80
2023-05-07T13:10:02.379Z,40.26
2023-05-07T13:12:29.754Z,39.75
2023-05-07T13:14:57.116Z,39.60
2023-05-07T13:17:24.829Z,39.00
2023-05-07T13:19:52.254Z,38.73
2023-05-07T13:22:19.621Z,38.89
2023-05-07T13:24:47.250Z,37.13
2023-05-07T13:27:14.579Z,38.36
2023-05-07T13:29:41.955Z,39.68
2023-05-07T13:32:09.638Z,39.44
2023-05-07T13:34:37.945Z,39.28
2023-05-07T13:37:05.434Z,40.26
2023-05-07T13:39:33.029Z,39.21
2023-05-07T13:42:00.625Z,40.76
2023-05-07T13:44:28.152Z,39.73
2023-05-07T13:46:55.778Z,40.12
2023-05-07T13:49:23.111Z,40.03
2023-05-07T13:51:50.583Z,41.50
2023-05-07T13:54:18.321Z,40.87
2023-05-07T13:56:45.665Z,40.32
2023-05-07T13:59:15.276Z,40.01
2023-05-07T14:01:43.026Z,39.87
2023-05-07T14:04:10.859Z,40.33
2023-05-07T14:06:38.430Z,39.33
2023-05-07T14:09:05.789Z,40.08
2023-05-07T14:11:34.203Z,39.69
2023-05-07T14:14:03.384Z,39.31
2023-05-07T14:16:30.858Z,38.80
2023-05-07T14:18:58.930Z,38.33
2023-05-07T14:21:26.409Z,38.33
2023-05-07T14:23:53.750Z,39.18
2023-05-07T14:26:21.830Z,39.38
2023-05-07T14:28:49.199Z,38.92
2023-05-07T14:31:16.667Z,38.55
2023-05-07T14:33:44.344Z,39.76
2023-05-07T14:36:11.697Z,38.88
2023-05-07T14:38:39.194Z,39.27
2023-05-07T14:41:06.810Z,39.80
2023-05-07T14:43:34.363Z,39.87
2023-05-07T14:46:01.756Z,40.12
2023-05-07T14:48:29.474Z,40.92
2023-05-07T14:50:57.409Z,41.89
2023-05-07T14:53:24.733Z,41.02
2023-05-07T14:55:52.353Z,41.47
2023-05-07T14:58:19.720Z,42.28
2023-05-07T15:00:47.086Z,41.77
2023-05-07T15:03:14.789Z,41.79
2023-05-07T15:05:42.773Z,41.46
2023-05-07T15:08:10.340Z,40.55
2023-05-07T15:10:41.961Z,41.39
2023-05-07T15:13:11.887Z,41.94
2023-05-07T15:15:42.627Z,41.70
2023-05-07T15:18:09.982Z,42.59
2023-05-07T15:20:37.625Z,42.79
2023-05-07T15:23:06.773Z,41.31
2023-05-07T15:25:34.936Z,40.84
2023-05-07T15:28:02.422Z,40.74
2023-05-07T15:30:30.117Z,39.42
2023-05-07T15:32:57.590Z,39.30
2023-05-07T15:35:26.569Z,40.22
2023-05-07T15:37:54.716Z,39.15
2023-05-07T15:40:22.072Z,40.61
2023-05-07T15:42:49.525Z,38.98
2023-05-07T15:45:17.134Z,38.45
2023-05-07T15:47:44.570Z,38.90
2023-05-07T15:50:12.478Z,39.23
2023-05-07T15:52:40.781Z,39.79
2023-05-07T15:55:09.824Z,38.96
2023-05-07T15:57:37.237Z,38.33
2023-05-07T16:00:06.079Z,39.42
2023-05-07T16:02:40.373Z,39.92
2023-05-07T16:05:12.718Z,38.37
2023-05-07T16:07:40.998Z,39.24
2023-05-07T16:10:09.578Z,39.01
2023-05-07T16:12:37.166Z,38.64
2023-05-07T16:15:05.000Z,38.91
2023-05-07T16:17:33.631Z,38.33
2023-05-07T16:20:02.058Z,38.07
2023-05-07T16:22:31.554Z,38.59
2023-05-07T16:24:59.173Z,38.27
2023-05-07T16:27:26.513Z,38.67
2023-05-07T16:29:53.847Z,37.73
2023-05-07T16:32:21.452Z,37.92
2023-05-07T16:34:48.817Z,38.28
2023-05-07T16:37:16.158Z,38.21
2023-05-07T16:39:43.761Z,38.98
2023-05-07T16:42:11.201Z,38.59
2023-05-07T16:44:39.013Z,38.50
2023-05-07T16:47:06.695Z,39.03
2023-05-07T16:49:34.131Z,38.17
2023-05-07T16:52:01.453Z,38.36
2023-05-07T16:54:29.093Z,38.69
2023-05-07T16:56:57.055Z,38.61
2023-05-07T16:59:24.453Z,37.88
2023-05-07T17:01:52.526Z,38.78
2023-05-07T17:04:20.005Z,38.97
2023-05-07T17:06:47.388Z,40.14
2023-05-07T17:09:15.004Z,39.18
2023-05-07T17:11:42.402Z,39.80
2023-05-07T17:14:09.819Z,39.25
2023-05-07T17:16:37.514Z,39.85
2023-05-07T17:19:04.940Z,39.09
2023-05-07T17:21:32.381Z,40.37
2023-05-07T17:23:59.978Z,40.12
2023-05-07T17:26:27.937Z,41.04
2023-05-07T17:28:55.395Z,40.83
2023-05-07T17:31:23.087Z,40.58
2023-05-07T17:33:50.503Z,41.53
2023-05-07T17:36:17.860Z,40.65
2023-05-07T17:38:45.684Z,40.01
2023-05-07T17:41:13.057Z,39.88
2023-05-07T17:43:40.391Z,39.60
2023-05-07T17:46:09.043Z,40.54
2023-05-07T17:48:36.428Z,41.12
2023-05-07T17:51:04.083Z,41.71
2023-05-07T17:53:32.162Z,42.19
2023-05-07T17:55:59.515Z,42.82
2023-05-07T17:58:27.254Z,42.41
2023-05-07T18:00:55.500Z,42.87
2023-05-07T18:03:24.926Z,44.03
2023-05-07T18:05:52.315Z,44.31
2023-05-07T18:08:19.633Z,44.42
2023-05-07T18:10:47.337Z,44.18
2023-05-07T18:13:14.738Z,44.76
2023-05-07T18:15:42.295Z,45.20
2023-05-07T18:18:10.012Z,44.81
2023-05-07T18:20:37.450Z,46.29
2023-05-07T18:23:04.857Z,45.97
2023-05-07T18:25:32.818Z,45.28
2023-05-07T18:28:00.186Z,45.60
2023-05-07T18:30:27.585Z,45.12
2023-05-07T18:32:55.230Z,46.32
2023-05-07T18:35:22.776Z,46.27
2023-05-07T18:37:50.148Z,44.78
2023-05-07T18:40:17.854Z,45.34
2023-05-07T18:42:45.210Z,46.25
2023-05-07T18:45:12.668Z,44.97
2023-05-07T18:47:40.284Z,45.49
2023-05-07T18:50:08.354Z,45.16
2023-05-07T18:52:35.995Z,46.81
2023-05-07T18:55:04.051Z,45.34
2023-05-07T18:57:31.419Z,44.95
2023-05-07T18:59:58.801Z,45.47
2023-05-07T19:02:26.457Z,46.20
2023-05-07T19:04:53.854Z,47.13
2023-05-07T19:07:21.263Z,46.03
2023-05-07T19:10:03.625Z,45.56
2023-05-07T19:12:32.603Z,45.60
2023-05-07T19:15:00.241Z,47.23
2023-05-07T19:17:27.681Z,46.88
2023-05-07T19:19:55.051Z,46.00
2023-05-07T19:22:22.717Z,45.66
2023-05-07T19:24:50.097Z,46.04
2023-05-07T19:27:17.432Z,46.53
2023-05-07T19:29:45.043Z,46.49
2023-05-07T19:32:12.372Z,47.70
2023-05-07T19:34:39.733Z,47.81
2023-05-07T19:37:07.356Z,47.43
2023-05-07T19:39:34.680Z,46.65
2023-05-07T19:42:02.081Z,47.03
2023-05-07T19:44:29.721Z,47.14
2023-05-07T19:46:59.047Z,46.11
2023-05-07T19:49:26.364Z,45.92
2023-05-07T19:51:54.261Z,47.19
2023-05-07T19:54:22.619Z,47.79
2023-05-07T19:56:49.996Z,49.13
2023-05-07T19:59:17.652Z,48.31
2023-05-07T20:01:45.055Z,50.32
2023-05-07T20:04:12.699Z,50.45
2023-05-07T20:06:40.074Z,50.83
2023-05-07T20:09:11.598Z,50.33
2023-05-07T20:11:39.871Z,50.24
2023-05-07T20:14:07.423Z,50.99
2023-05-07T20:16:34.892Z,52.79
2023-05-07T20:19:02.685Z,52.96
2023-05-07T20:21:30.061Z,56.92
2023-05-07T20:23:58.122Z,59.47
2023-05-07T20:26:26.798Z,57.67
2023-05-07T20:28:54.157Z,56.27
2023-05-07T20:31:21.598Z,55.65
2023-05-07T20:33:49.304Z,58.96
2023-05-07T20:36:16.748Z,60.26
2023-05-07T20:38:44.293Z,58.37
2023-05-07T20:41:12.634Z,56.43
2023-05-07T20:43:39.977Z,58.75
2023-05-07T20:46:07.798Z,56.96
2023-05-07T20:48:35.625Z,55.29
2023-05-07T20:51:03.126Z,53.93
2023-05-07T20:53:31.435Z,52.62
2023-05-07T20:55:59.374Z,51.98
2023-05-07T20:58:28.278Z,53.50
2023-05-07T21:00:56.033Z,51.08
2023-05-07T21:03:23.699Z,52.51
2023-05-07T21:05:55.745Z,51.15
2023-05-07T21:08:23.201Z,50.41
2023-05-07T21:10:52.378Z,50.42
2023-05-07T21:13:19.789Z,50.83
2023-05-07T21:15:47.223Z,52.16
2023-05-07T21:18:14.953Z,48.43
2023-05-07T21:20:42.387Z,48.96
2023-05-07T21:23:09.720Z,50.98
2023-05-07T21:25:38.765Z,48.54
2023-05-07T21:28:07.728Z,50.86
2023-05-07T21:30:35.512Z,49.39
2023-05-07T21:33:03.410Z,49.91
2023-05-07T21:35:31.474Z,48.46
2023-05-07T21:37:58.968Z,47.55
2023-05-07T21:40:26.587Z,48.65
2023-05-07T21:42:54.008Z,47.27
2023-05-07T21:45:21.365Z,47.57
2023-05-07T21:47:49.055Z,47.22
2023-05-07T21:50:16.849Z,48.02
2023-05-07T21:52:44.425Z,48.31
2023-05-07T21:55:12.234Z,49.25
2023-05-07T21:57:41.892Z,49.69
2023-05-07T22:00:11.792Z,49.83
2023-05-07T22:02:39.749Z,49.99
2023-05-07T22:05:07.453Z,49.23
2023-05-07T22:07:34.680Z,50.22
2023-05-07T22:10:02.335Z,50.57
2023-05-07T22:12:29.709Z,50.81
2023-05-07T22:14:57.101Z,49.71
2023-05-07T22:17:24.860Z,50.60
2023-05-07T22:19:52.970Z,50.36
2023-05-07T22:22:20.537Z,50.15
2023-05-07T22:24:48.130Z,51.27
2023-05-07T22:27:15.441Z,51.74
2023-05-07T22:29:42.841Z,52.20
2023-05-07T22:32:12.498Z,51.57
2023-05-07T22:34:40.131Z,50.45
2023-05-07T22:37:07.504Z,49.66
2023-05-07T22:39:35.590Z,51.07
2023-05-07T22:42:03.019Z,51.50
2023-05-07T22:44:30.389Z,51.14
2023-05-07T22:46:58.032Z,51.12
2023-05-07T22:49:25.365Z,51.91
2023-05-07T22:51:52.740Z,50.58
2023-05-07T22:54:20.457Z,51.35
2023-05-07T22:56:47.813Z,51.69
2023-05-07T22:59:15.280Z,51.40
2023-05-07T23:01:43.514Z,51.43
2023-05-07T23:04:10.901Z,51.58
2023-05-07T23:06:38.260Z,51.44
2023-05-07T23:09:06.366Z,52.64
2023-05-07T23:11:33.900Z,53.49
2023-05-07T23:14:01.284Z,52.86
2023-05-07T23:16:29.191Z,52.01
2023-05-07T23:18:56.799Z,52.16
2023-05-07T23:21:24.208Z,51.46
2023-05-07T23:23:51.913Z,52.87
2023-05-07T23:26:19.264Z,52.63
2023-05-07T23:28:46.590Z,51.19
2023-05-07T23:31:14.263Z,52.54
2023-05-07T23:33:41.699Z,52.86
2023-05-07T23:36:09.461Z,53.55
2023-05-07T23:38:37.100Z,53.18
2023-05-07T23:41:04.453Z,52.58
2023-05-07T23:43:32.041Z,52.47
2023-05-07T23:45:59.743Z,52.76
2023-05-07T23:48:27.147Z,53.14
2023-05-07T23:50:55.248Z,53.88
2023-05-07T23:53:22.858Z,53.43
2023-05-07T23:55:50.227Z,53.59
2023-05-07T23:58:17.601Z,52.68
